Metar Report
Metar
METAR K1B1 290656Z AUTO 00000KT 10SM OVC100 16/13 A3002 A02 18
METAR K1B1 290556Z AUTO 00000KT 10SM OVC110 17/13 A3002 A02 17
METAR K1B1 290456Z AUTO 00000KT 10SM SCT120 16/13 A3001 A02 16
METAR K1B1 290356Z AUTO 00000KT 10SM OVC120 16/13 A3004 A02 15
METAR K1B1 290256Z AUTO 00000KT 10SM CLR 16/12 A3000 A02 14
METAR K1B1 290156Z AUTO 00000KT 10SM CLR 18/14 A3001 A02 13
METAR K1B1 290056Z AUTO 00000KT 10SM CLR 18/13 A3000 A02 12
METAR K1B1 282356Z AUTO 00000KT 10SM CLR 24/13 A2998 A02 11
METAR K1B1 282256Z AUTO 00000KT 10SM CLR 27/14 A2995 A02 10
METAR K1B1 282156Z AUTO 00000KT 10SM CLR 27/13 A2994 A02 9
METAR K1B1 282056Z AUTO 00000KT 10SM BKN090 BKN120 27/13 A2995 A02 8
METAR K1B1 281956Z AUTO 00000KT 10SM CLR 27/14 A2995 A02 7
METAR K1B1 281856Z AUTO 00000KT 10SM CLR 26/13 A2997 A02 6
METAR K1B1 281756Z AUTO 20004KT 10SM CLR 25/14 A2997 A02 5
METAR K1B1 281656Z AUTO 00000KT 10SM CLR 23/13 A3000 A02 4
METAR K1B1 281556Z AUTO 06006KT 10SM CLR 23/13 A3000 A02 3
METAR K1B1 281456Z AUTO 02004KT 10SM CLR 21/13 A2999 A02 2
METAR K1B1 281356Z AUTO 01003KT 10SM SCT013 SCT018 OVC036 18/14 A3000 A02 1
METAR K1B1 281256Z AUTO 00000KT 10SM BKN009 OVC012 17/14 A2998 A02 0
METAR K1B1 281156Z AUTO 19004KT 10SM OVC011 17/14 A2995 A02 69
METAR K1B1 281056Z AUTO 00000KT 10SM OVC011 17/14 A2994 A02 68
METAR K1B1 280956Z AUTO 00000KT 10SM OVC013 16/14 A2990 A02 67
METAR K1B1 280856Z AUTO 00000KT 10SM OVC013 17/14 A2990 A02 66
METAR K1B1 280756Z AUTO 19005KT 10SM OVC013 17/14 A2988 A02 65
METAR K1B1 280656Z AUTO 18004KT 10SM OVC013 17/14 A2986 A02 64
METAR K1B1 280556Z AUTO 19005KT 10SM OVC013 17/14 A2986 A02 63
METAR K1B1 280456Z AUTO 18006KT 10SM OVC013 17/14 A2987 A02 62
METAR K1B1 280356Z AUTO 20005KT 10SM OVC015 17/14 A2988 A02 61
METAR K1B1 280256Z AUTO 19008KT 10SM OVC017 18/14 A2988 A02 60
METAR K1B1 280156Z AUTO 18008G15KT 10SM OVC019 18/14 A2988 A02 59
METAR K1B1 280056Z AUTO 18008KT 10SM BKN042 18/14 A2986 A02 58
METAR K1B1 272356Z AUTO 18007KT 10SM BKN027 OVC040 19/15 A2985 A02 57
METAR K1B1 272256Z AUTO 18011G15KT 10SM BKN029 OVC035 20/15 A2984 A02 56
METAR K1B1 272156Z AUTO 17007G14KT 10SM OVC031 21/15 A2983 A02 55
METAR K1B1 272056Z AUTO 18007G15KT 10SM OVC031 22/15 A2982 A02 54
METAR K1B1 271956Z AUTO 21009KT 10SM OVC029 22/15 A2984 A02 53
METAR K1B1 271856Z AUTO 18008KT 10SM OVC027 21/14 A2986 A02 52
METAR K1B1 271756Z AUTO 21008KT 10SM OVC025 20/14 A2988 A02 51
METAR K1B1 271656Z AUTO 18007KT 10SM OVC023 19/14 A2989 A02 50
METAR K1B1 271556Z AUTO 20008KT 10SM OVC023 19/14 A2989 A02 49
METAR K1B1 271456Z AUTO 19007KT 10SM OVC021 18/14 A2990 A02 48
METAR K1B1 271356Z AUTO 20006KT 10SM OVC023 18/14 A2990 A02 47
METAR K1B1 271256Z AUTO 18006KT 10SM OVC021 17/14 A2990 A02 46
METAR K1B1 271156Z AUTO 00000KT 10SM SCT012 OVC021 16/14 A2989 A02 45
METAR K1B1 271056Z AUTO 00000KT 10SM SCT012 OVC021 14/13 A2988 A02 44
METAR K1B1 270956Z AUTO 00000KT 10SM OVC019 14/13 A2986 A02 43
METAR K1B1 270856Z AUTO 00000KT 10SM OVC021 15/13 A2985 A02 42
METAR K1B1 270756Z AUTO 00000KT 10SM OVC021 15/13 A2984 A02 41
METAR K1B1 270656Z AUTO 00000KT 10SM OVC021 15/13 A2985 A02 40
METAR K1B1 270556Z AUTO 00000KT 10SM OVC023 15/13 A2984 A02 39
METAR K1B1 270456Z AUTO 00000KT 10SM OVC023 16/13 A2984 A02 38
METAR K1B1 270356Z AUTO 00000KT 10SM OVC025 16/13 A2985 A02 37
METAR K1B1 270256Z AUTO 14003KT 10SM OVC021 16/13 A2984 A02 36
METAR K1B1 270156Z AUTO 00000KT 10SM OVC027 16/13 A2984 A02 35
METAR K1B1 270056Z AUTO 16003KT 10SM OVC024 17/14 A2981 A02 34
METAR K1B1 262356Z AUTO 00000KT 10SM SCT024 BKN030 17/14 A2980 A02 33
METAR K1B1 262256Z AUTO 00000KT 10SM OVC032 18/14 A2979 A02 32
METAR K1B1 262156Z AUTO 24003KT 10SM OVC032 18/14 A2977 A02 31
METAR K1B1 262056Z AUTO 00000KT 10SM OVC030 19/14 A2976 A02 30
METAR K1B1 261956Z AUTO 00000KT 10SM SCT014 BKN028 OVC060 19/15 A2978 A02 29
METAR K1B1 261856Z AUTO 34004KT 10SM BKN010 BKN016 OVC029 17/14 A2980 A02 28
METAR K1B1 261756Z AUTO 00000KT 10SM OVC008 16/13 A2982 A02 27
METAR K1B1 261656Z AUTO 01005KT 10SM OVC006 14/13 A2983 A02 26
METAR K1B1 261556Z AUTO 34004KT 10SM OVC004 13/12 A2984 A02 25
METAR K1B1 261456Z AUTO 00000KT 4SM -DZ BKN004 OVC008 12/11 A2985 A02 P0003 24
METAR K1B1 261356Z AUTO 36004KT 3SM RA BKN004 OVC019 11/11 A2985 A02 P0006 23
METAR K1B1 261256Z AUTO 01006KT 10SM OVC004 11/11 A2985 A02 22
METAR K1B1 261156Z AUTO 01004KT 10SM OVC004 11/10 A2988 A02 P0001 21
METAR K1B1 261056Z AUTO 02004KT 10SM OVC004 11/09 A2988 A02 20
METAR K1B1 260956Z AUTO 01005KT 7SM OVC004 10/09 A2987 A02 19